sensor_id;sensor_type;location;lat;lon;timestamp;P1;durP1;ratioP1;P2;durP2;ratioP2
20478;SDS011;10398;52.490;13.434;2022-08-21T00:00:05;6.88;;;3.22;;
20478;SDS011;10398;52.490;13.434;2022-08-21T00:02:43;8.30;;;3.90;;
20478;SDS011;10398;52.490;13.434;2022-08-21T00:05:10;10.52;;;4.82;;
20478;SDS011;10398;52.490;13.434;2022-08-21T00:07:36;18.17;;;7.43;;
20478;SDS011;10398;52.490;13.434;2022-08-21T00:10:02;31.95;;;13.70;;
20478;SDS011;10398;52.490;13.434;2022-08-21T00:12:29;16.80;;;6.85;;
20478;SDS011;10398;52.490;13.434;2022-08-21T00:14:56;8.38;;;4.10;;
20478;SDS011;10398;52.490;13.434;2022-08-21T00:17:21;12.77;;;6.35;;
20478;SDS011;10398;52.490;13.434;2022-08-21T00:19:47;14.55;;;6.78;;
20478;SDS011;10398;52.490;13.434;2022-08-21T00:22:13;10.23;;;4.70;;
20478;SDS011;10398;52.490;13.434;2022-08-21T00:24:39;6.97;;;3.72;;
20478;SDS011;10398;52.490;13.434;2022-08-21T00:27:04;6.40;;;3.60;;
20478;SDS011;10398;52.490;13.434;2022-08-21T00:29:30;6.63;;;3.53;;
20478;SDS011;10398;52.490;13.434;2022-08-21T00:31:56;15.27;;;3.85;;
20478;SDS011;10398;52.490;13.434;2022-08-21T00:34:21;9.73;;;4.03;;
20478;SDS011;10398;52.490;13.434;2022-08-21T00:36:47;11.93;;;4.20;;
20478;SDS011;10398;52.490;13.434;2022-08-21T00:39:12;5.93;;;3.47;;
20478;SDS011;10398;52.490;13.434;2022-08-21T00:41:39;9.60;;;3.75;;
20478;SDS011;10398;52.490;13.434;2022-08-21T00:44:06;7.13;;;3.17;;
20478;SDS011;10398;52.490;13.434;2022-08-21T00:46:34;7.22;;;3.33;;
20478;SDS011;10398;52.490;13.434;2022-08-21T00:49:00;10.32;;;3.55;;
20478;SDS011;10398;52.490;13.434;2022-08-21T00:51:31;5.40;;;2.83;;
20478;SDS011;10398;52.490;13.434;2022-08-21T00:56:51;4.53;;;2.80;;
20478;SDS011;10398;52.490;13.434;2022-08-21T00:59:20;8.75;;;3.22;;
20478;SDS011;10398;52.490;13.434;2022-08-21T01:01:48;11.00;;;2.80;;
20478;SDS011;10398;52.490;13.434;2022-08-21T01:04:15;8.35;;;3.15;;
20478;SDS011;10398;52.490;13.434;2022-08-21T01:06:41;4.90;;;2.60;;
20478;SDS011;10398;52.490;13.434;2022-08-21T01:09:07;5.47;;;3.10;;
20478;SDS011;10398;52.490;13.434;2022-08-21T01:11:34;6.63;;;3.42;;
20478;SDS011;10398;52.490;13.434;2022-08-21T01:14:01;8.27;;;3.60;;
20478;SDS011;10398;52.490;13.434;2022-08-21T01:16:27;8.80;;;3.17;;
20478;SDS011;10398;52.490;13.434;2022-08-21T01:18:54;6.22;;;3.30;;
20478;SDS011;10398;52.490;13.434;2022-08-21T01:21:24;6.03;;;3.65;;
20478;SDS011;10398;52.490;13.434;2022-08-21T01:23:52;9.35;;;3.30;;
20478;SDS011;10398;52.490;13.434;2022-08-21T01:26:23;9.55;;;3.70;;
20478;SDS011;10398;52.490;13.434;2022-08-21T01:31:53;8.52;;;3.70;;
20478;SDS011;10398;52.490;13.434;2022-08-21T01:34:19;6.25;;;3.58;;
20478;SDS011;10398;52.490;13.434;2022-08-21T01:36:45;5.93;;;3.38;;
20478;SDS011;10398;52.490;13.434;2022-08-21T01:39:11;5.28;;;3.30;;
20478;SDS011;10398;52.490;13.434;2022-08-21T01:41:38;4.88;;;3.08;;
20478;SDS011;10398;52.490;13.434;2022-08-21T01:44:03;5.10;;;3.20;;
20478;SDS011;10398;52.490;13.434;2022-08-21T01:46:29;5.65;;;3.17;;
20478;SDS011;10398;52.490;13.434;2022-08-21T01:48:55;4.03;;;2.65;;
20478;SDS011;10398;52.490;13.434;2022-08-21T01:51:21;6.50;;;3.10;;
20478;SDS011;10398;52.490;13.434;2022-08-21T01:53:47;6.03;;;2.63;;
20478;SDS011;10398;52.490;13.434;2022-08-21T01:56:13;6.32;;;2.83;;
20478;SDS011;10398;52.490;13.434;2022-08-21T01:58:40;5.68;;;2.65;;
20478;SDS011;10398;52.490;13.434;2022-08-21T02:01:07;8.60;;;2.90;;
20478;SDS011;10398;52.490;13.434;2022-08-21T02:03:34;9.27;;;3.08;;
20478;SDS011;10398;52.490;13.434;2022-08-21T02:06:00;6.75;;;2.78;;
20478;SDS011;10398;52.490;13.434;2022-08-21T02:08:26;7.20;;;2.95;;
20478;SDS011;10398;52.490;13.434;2022-08-21T02:10:53;4.53;;;2.83;;
20478;SDS011;10398;52.490;13.434;2022-08-21T02:13:18;8.05;;;2.50;;
20478;SDS011;10398;52.490;13.434;2022-08-21T02:15:44;5.15;;;2.50;;
20478;SDS011;10398;52.490;13.434;2022-08-21T02:18:10;5.75;;;2.40;;
20478;SDS011;10398;52.490;13.434;2022-08-21T02:20:37;4.75;;;2.17;;
20478;SDS011;10398;52.490;13.434;2022-08-21T02:23:06;3.70;;;1.92;;
20478;SDS011;10398;52.490;13.434;2022-08-21T02:25:33;4.93;;;1.88;;
20478;SDS011;10398;52.490;13.434;2022-08-21T02:27:59;5.00;;;2.22;;
20478;SDS011;10398;52.490;13.434;2022-08-21T02:30:31;5.60;;;2.33;;
20478;SDS011;10398;52.490;13.434;2022-08-21T02:32:59;5.10;;;2.13;;
20478;SDS011;10398;52.490;13.434;2022-08-21T02:35:25;7.45;;;2.63;;
20478;SDS011;10398;52.490;13.434;2022-08-21T02:37:56;6.80;;;2.45;;
20478;SDS011;10398;52.490;13.434;2022-08-21T02:40:26;6.75;;;2.75;;
20478;SDS011;10398;52.490;13.434;2022-08-21T02:42:53;5.55;;;2.03;;
20478;SDS011;10398;52.490;13.434;2022-08-21T02:45:19;2.88;;;2.00;;
20478;SDS011;10398;52.490;13.434;2022-08-21T02:47:49;7.65;;;2.60;;
20478;SDS011;10398;52.490;13.434;2022-08-21T02:50:17;8.95;;;2.25;;
20478;SDS011;10398;52.490;13.434;2022-08-21T02:52:47;5.22;;;1.90;;
20478;SDS011;10398;52.490;13.434;2022-08-21T02:55:14;6.15;;;1.90;;
20478;SDS011;10398;52.490;13.434;2022-08-21T02:57:40;5.55;;;2.10;;
20478;SDS011;10398;52.490;13.434;2022-08-21T03:00:07;6.47;;;2.63;;
20478;SDS011;10398;52.490;13.434;2022-08-21T03:02:35;7.13;;;1.90;;
20478;SDS011;10398;52.490;13.434;2022-08-21T03:05:01;5.65;;;2.17;;
20478;SDS011;10398;52.490;13.434;2022-08-21T03:07:28;5.38;;;1.88;;
20478;SDS011;10398;52.490;13.434;2022-08-21T03:09:53;4.82;;;1.83;;
20478;SDS011;10398;52.490;13.434;2022-08-21T03:12:19;4.90;;;2.00;;
20478;SDS011;10398;52.490;13.434;2022-08-21T03:14:44;6.22;;;2.08;;
20478;SDS011;10398;52.490;13.434;2022-08-21T03:17:10;3.83;;;1.73;;
20478;SDS011;10398;52.490;13.434;2022-08-21T03:19:36;6.55;;;1.98;;
20478;SDS011;10398;52.490;13.434;2022-08-21T03:22:01;4.85;;;1.73;;
20478;SDS011;10398;52.490;13.434;2022-08-21T03:24:27;5.80;;;2.03;;
20478;SDS011;10398;52.490;13.434;2022-08-21T03:26:53;4.43;;;1.70;;
20478;SDS011;10398;52.490;13.434;2022-08-21T03:29:18;6.03;;;1.85;;
20478;SDS011;10398;52.490;13.434;2022-08-21T03:31:44;5.28;;;1.38;;
20478;SDS011;10398;52.490;13.434;2022-08-21T03:34:09;8.13;;;1.85;;
20478;SDS011;10398;52.490;13.434;2022-08-21T03:36:35;5.35;;;1.55;;
20478;SDS011;10398;52.490;13.434;2022-08-21T03:39:01;8.85;;;2.10;;
20478;SDS011;10398;52.490;13.434;2022-08-21T03:41:28;9.05;;;1.90;;
20478;SDS011;10398;52.490;13.434;2022-08-21T03:43:53;4.70;;;1.85;;
20478;SDS011;10398;52.490;13.434;2022-08-21T03:46:19;4.57;;;1.60;;
20478;SDS011;10398;52.490;13.434;2022-08-21T03:48:44;4.90;;;1.88;;
20478;SDS011;10398;52.490;13.434;2022-08-21T03:51:10;3.55;;;1.65;;
20478;SDS011;10398;52.490;13.434;2022-08-21T03:53:36;6.18;;;1.80;;
20478;SDS011;10398;52.490;13.434;2022-08-21T03:56:01;4.22;;;1.70;;
20478;SDS011;10398;52.490;13.434;2022-08-21T03:58:28;5.07;;;1.70;;
20478;SDS011;10398;52.490;13.434;2022-08-21T04:00:57;7.30;;;1.73;;
20478;SDS011;10398;52.490;13.434;2022-08-21T04:03:25;6.53;;;1.70;;
20478;SDS011;10398;52.490;13.434;2022-08-21T04:05:52;4.95;;;1.35;;
20478;SDS011;10398;52.490;13.434;2022-08-21T04:08:17;5.80;;;1.83;;
20478;SDS011;10398;52.490;13.434;2022-08-21T04:10:44;5.78;;;1.95;;
20478;SDS011;10398;52.490;13.434;2022-08-21T04:13:12;5.22;;;1.73;;
20478;SDS011;10398;52.490;13.434;2022-08-21T04:15:39;3.13;;;1.48;;
20478;SDS011;10398;52.490;13.434;2022-08-21T04:18:05;6.55;;;1.90;;
20478;SDS011;10398;52.490;13.434;2022-08-21T04:20:33;8.18;;;1.80;;
20478;SDS011;10398;52.490;13.434;2022-08-21T04:22:59;8.88;;;1.85;;
20478;SDS011;10398;52.490;13.434;2022-08-21T04:25:24;8.00;;;2.13;;
20478;SDS011;10398;52.490;13.434;2022-08-21T04:27:50;10.85;;;3.15;;
20478;SDS011;10398;52.490;13.434;2022-08-21T04:30:17;8.63;;;2.88;;
20478;SDS011;10398;52.490;13.434;2022-08-21T04:32:43;10.27;;;3.58;;
20478;SDS011;10398;52.490;13.434;2022-08-21T04:35:10;9.25;;;3.50;;
20478;SDS011;10398;52.490;13.434;2022-08-21T04:37:37;8.80;;;3.05;;
20478;SDS011;10398;52.490;13.434;2022-08-21T04:40:03;9.57;;;2.75;;
20478;SDS011;10398;52.490;13.434;2022-08-21T04:42:29;8.73;;;2.70;;
20478;SDS011;10398;52.490;13.434;2022-08-21T04:44:55;12.77;;;2.00;;
20478;SDS011;10398;52.490;13.434;2022-08-21T04:47:22;9.32;;;2.22;;
20478;SDS011;10398;52.490;13.434;2022-08-21T04:49:49;7.55;;;2.13;;
20478;SDS011;10398;52.490;13.434;2022-08-21T04:52:17;8.15;;;2.35;;
20478;SDS011;10398;52.490;13.434;2022-08-21T04:54:45;2.65;;;1.52;;
20478;SDS011;10398;52.490;13.434;2022-08-21T04:57:12;8.23;;;1.88;;
20478;SDS011;10398;52.490;13.434;2022-08-21T04:59:44;12.68;;;2.72;;
20478;SDS011;10398;52.490;13.434;2022-08-21T05:02:12;8.63;;;2.80;;
20478;SDS011;10398;52.490;13.434;2022-08-21T05:04:41;7.35;;;3.28;;
20478;SDS011;10398;52.490;13.434;2022-08-21T05:07:12;8.32;;;3.10;;
20478;SDS011;10398;52.490;13.434;2022-08-21T05:09:42;8.88;;;2.72;;
20478;SDS011;10398;52.490;13.434;2022-08-21T05:12:08;6.82;;;2.20;;
20478;SDS011;10398;52.490;13.434;2022-08-21T05:14:34;5.68;;;2.22;;
20478;SDS011;10398;52.490;13.434;2022-08-21T05:17:00;6.63;;;1.67;;
20478;SDS011;10398;52.490;13.434;2022-08-21T05:19:25;8.02;;;3.55;;
20478;SDS011;10398;52.490;13.434;2022-08-21T05:21:52;6.57;;;2.08;;
20478;SDS011;10398;52.490;13.434;2022-08-21T05:24:18;5.20;;;2.65;;
20478;SDS011;10398;52.490;13.434;2022-08-21T05:26:44;7.40;;;2.40;;
20478;SDS011;10398;52.490;13.434;2022-08-21T05:29:10;6.47;;;2.28;;
20478;SDS011;10398;52.490;13.434;2022-08-21T05:31:36;6.85;;;1.77;;
20478;SDS011;10398;52.490;13.434;2022-08-21T05:34:02;9.85;;;1.65;;
20478;SDS011;10398;52.490;13.434;2022-08-21T05:36:29;5.00;;;1.38;;
20478;SDS011;10398;52.490;13.434;2022-08-21T05:38:55;3.72;;;1.15;;
20478;SDS011;10398;52.490;13.434;2022-08-21T05:41:21;6.40;;;1.50;;
20478;SDS011;10398;52.490;13.434;2022-08-21T05:43:47;5.63;;;1.30;;
20478;SDS011;10398;52.490;13.434;2022-08-21T05:46:13;5.32;;;1.30;;
20478;SDS011;10398;52.490;13.434;2022-08-21T05:48:38;7.25;;;1.88;;
20478;SDS011;10398;52.490;13.434;2022-08-21T05:51:05;5.47;;;1.40;;
20478;SDS011;10398;52.490;13.434;2022-08-21T05:53:32;5.97;;;1.40;;
20478;SDS011;10398;52.490;13.434;2022-08-21T05:55:58;9.50;;;1.98;;
20478;SDS011;10398;52.490;13.434;2022-08-21T05:58:24;4.63;;;1.30;;
20478;SDS011;10398;52.490;13.434;2022-08-21T06:00:50;10.20;;;1.63;;
20478;SDS011;10398;52.490;13.434;2022-08-21T06:03:20;7.32;;;1.38;;
20478;SDS011;10398;52.490;13.434;2022-08-21T06:05:51;3.67;;;1.27;;
20478;SDS011;10398;52.490;13.434;2022-08-21T06:08:18;6.22;;;0.90;;
20478;SDS011;10398;52.490;13.434;2022-08-21T06:10:45;3.70;;;1.40;;
20478;SDS011;10398;52.490;13.434;2022-08-21T06:13:12;8.02;;;1.42;;
20478;SDS011;10398;52.490;13.434;2022-08-21T06:15:38;9.05;;;1.70;;
20478;SDS011;10398;52.490;13.434;2022-08-21T06:18:03;4.25;;;1.70;;
20478;SDS011;10398;52.490;13.434;2022-08-21T06:20:29;6.18;;;1.58;;
20478;SDS011;10398;52.490;13.434;2022-08-21T06:22:55;8.35;;;1.40;;
20478;SDS011;10398;52.490;13.434;2022-08-21T06:25:21;4.88;;;1.40;;
20478;SDS011;10398;52.490;13.434;2022-08-21T06:27:46;9.77;;;1.70;;
20478;SDS011;10398;52.490;13.434;2022-08-21T06:30:12;10.23;;;1.48;;
20478;SDS011;10398;52.490;13.434;2022-08-21T06:32:38;11.68;;;1.45;;
20478;SDS011;10398;52.490;13.434;2022-08-21T06:35:04;4.20;;;1.50;;
20478;SDS011;10398;52.490;13.434;2022-08-21T06:37:31;8.82;;;1.80;;
20478;SDS011;10398;52.490;13.434;2022-08-21T06:39:57;9.05;;;2.78;;
20478;SDS011;10398;52.490;13.434;2022-08-21T06:42:22;11.23;;;2.63;;
20478;SDS011;10398;52.490;13.434;2022-08-21T06:44:48;8.55;;;1.83;;
20478;SDS011;10398;52.490;13.434;2022-08-21T06:47:14;8.25;;;1.75;;
20478;SDS011;10398;52.490;13.434;2022-08-21T06:49:40;6.90;;;1.80;;
20478;SDS011;10398;52.490;13.434;2022-08-21T06:52:09;9.80;;;2.10;;
20478;SDS011;10398;52.490;13.434;2022-08-21T06:54:36;9.30;;;1.80;;
20478;SDS011;10398;52.490;13.434;2022-08-21T06:57:01;10.23;;;1.77;;
20478;SDS011;10398;52.490;13.434;2022-08-21T06:59:27;5.13;;;1.48;;
20478;SDS011;10398;52.490;13.434;2022-08-21T07:01:53;5.82;;;1.60;;
20478;SDS011;10398;52.490;13.434;2022-08-21T07:04:18;6.45;;;1.77;;
20478;SDS011;10398;52.490;13.434;2022-08-21T07:06:44;7.28;;;1.83;;
20478;SDS011;10398;52.490;13.434;2022-08-21T07:09:10;5.88;;;1.80;;
20478;SDS011;10398;52.490;13.434;2022-08-21T07:11:36;7.05;;;1.60;;
20478;SDS011;10398;52.490;13.434;2022-08-21T07:14:02;10.00;;;2.05;;
20478;SDS011;10398;52.490;13.434;2022-08-21T07:16:29;8.63;;;1.90;;
20478;SDS011;10398;52.490;13.434;2022-08-21T07:18:54;8.52;;;1.60;;
20478;SDS011;10398;52.490;13.434;2022-08-21T07:21:20;9.10;;;1.65;;
20478;SDS011;10398;52.490;13.434;2022-08-21T07:23:47;6.63;;;1.45;;
20478;SDS011;10398;52.490;13.434;2022-08-21T07:26:16;4.28;;;1.63;;
20478;SDS011;10398;52.490;13.434;2022-08-21T07:28:45;6.15;;;1.60;;
20478;SDS011;10398;52.490;13.434;2022-08-21T07:31:13;3.88;;;1.45;;
20478;SDS011;10398;52.490;13.434;2022-08-21T07:33:40;4.93;;;1.17;;
20478;SDS011;10398;52.490;13.434;2022-08-21T07:36:07;5.53;;;1.45;;
20478;SDS011;10398;52.490;13.434;2022-08-21T07:38:34;8.52;;;1.63;;
20478;SDS011;10398;52.490;13.434;2022-08-21T07:41:00;5.78;;;1.70;;
20478;SDS011;10398;52.490;13.434;2022-08-21T07:43:27;4.05;;;1.50;;
20478;SDS011;10398;52.490;13.434;2022-08-21T07:45:53;3.33;;;1.20;;
20478;SDS011;10398;52.490;13.434;2022-08-21T07:48:19;9.60;;;2.42;;
20478;SDS011;10398;52.490;13.434;2022-08-21T07:50:46;4.50;;;1.90;;
20478;SDS011;10398;52.490;13.434;2022-08-21T07:53:12;7.05;;;1.90;;
20478;SDS011;10398;52.490;13.434;2022-08-21T07:55:38;9.20;;;2.33;;
20478;SDS011;10398;52.490;13.434;2022-08-21T07:58:03;5.20;;;1.33;;
20478;SDS011;10398;52.490;13.434;2022-08-21T08:00:29;3.83;;;1.05;;
20478;SDS011;10398;52.490;13.434;2022-08-21T08:02:55;3.67;;;1.20;;
20478;SDS011;10398;52.490;13.434;2022-08-21T08:05:22;9.27;;;1.35;;
20478;SDS011;10398;52.490;13.434;2022-08-21T08:07:50;4.88;;;0.77;;
20478;SDS011;10398;52.490;13.434;2022-08-21T08:10:16;3.42;;;0.77;;
20478;SDS011;10398;52.490;13.434;2022-08-21T08:12:42;10.32;;;3.42;;
20478;SDS011;10398;52.490;13.434;2022-08-21T08:15:11;3.22;;;1.33;;
20478;SDS011;10398;52.490;13.434;2022-08-21T08:17:39;4.18;;;1.30;;
20478;SDS011;10398;52.490;13.434;2022-08-21T08:20:05;3.10;;;1.13;;
20478;SDS011;10398;52.490;13.434;2022-08-21T08:22:33;3.13;;;1.17;;
20478;SDS011;10398;52.490;13.434;2022-08-21T08:24:59;3.75;;;0.60;;
20478;SDS011;10398;52.490;13.434;2022-08-21T08:27:26;5.93;;;1.13;;
20478;SDS011;10398;52.490;13.434;2022-08-21T08:29:52;5.47;;;1.52;;
20478;SDS011;10398;52.490;13.434;2022-08-21T08:32:18;4.80;;;1.30;;
20478;SDS011;10398;52.490;13.434;2022-08-21T08:34:44;6.80;;;1.30;;
20478;SDS011;10398;52.490;13.434;2022-08-21T08:37:11;4.03;;;1.15;;
20478;SDS011;10398;52.490;13.434;2022-08-21T08:39:37;4.90;;;1.13;;
20478;SDS011;10398;52.490;13.434;2022-08-21T08:42:08;3.60;;;0.90;;
20478;SDS011;10398;52.490;13.434;2022-08-21T08:44:38;6.53;;;1.02;;
20478;SDS011;10398;52.490;13.434;2022-08-21T08:47:09;4.43;;;0.88;;
20478;SDS011;10398;52.490;13.434;2022-08-21T08:49:40;6.38;;;0.98;;
20478;SDS011;10398;52.490;13.434;2022-08-21T08:55:08;3.90;;;1.05;;
20478;SDS011;10398;52.490;13.434;2022-08-21T08:57:37;4.80;;;1.13;;
20478;SDS011;10398;52.490;13.434;2022-08-21T09:00:08;4.72;;;1.10;;
20478;SDS011;10398;52.490;13.434;2022-08-21T09:02:39;2.97;;;0.98;;
20478;SDS011;10398;52.490;13.434;2022-08-21T09:05:07;3.30;;;1.10;;
20478;SDS011;10398;52.490;13.434;2022-08-21T09:13:24;4.15;;;1.00;;
20478;SDS011;10398;52.490;13.434;2022-08-21T09:16:13;5.15;;;1.30;;
20478;SDS011;10398;52.490;13.434;2022-08-21T09:24:36;4.35;;;1.65;;
20478;SDS011;10398;52.490;13.434;2022-08-21T09:27:06;2.50;;;0.80;;
20478;SDS011;10398;52.490;13.434;2022-08-21T09:29:39;7.65;;;1.20;;
20478;SDS011;10398;52.490;13.434;2022-08-21T09:32:18;5.30;;;1.30;;
20478;SDS011;10398;52.490;13.434;2022-08-21T09:37:44;2.88;;;0.90;;
20478;SDS011;10398;52.490;13.434;2022-08-21T09:40:30;3.25;;;0.70;;
20478;SDS011;10398;52.490;13.434;2022-08-21T09:45:36;5.22;;;1.13;;
20478;SDS011;10398;52.490;13.434;2022-08-21T09:48:12;2.85;;;0.95;;
20478;SDS011;10398;52.490;13.434;2022-08-21T09:50:38;4.85;;;1.10;;
20478;SDS011;10398;52.490;13.434;2022-08-21T09:53:05;2.15;;;0.80;;
20478;SDS011;10398;52.490;13.434;2022-08-21T09:55:53;5.47;;;1.05;;
20478;SDS011;10398;52.490;13.434;2022-08-21T09:58:45;5.93;;;1.33;;
20478;SDS011;10398;52.490;13.434;2022-08-21T10:01:18;4.72;;;1.10;;
20478;SDS011;10398;52.490;13.434;2022-08-21T10:04:01;3.88;;;0.95;;
20478;SDS011;10398;52.490;13.434;2022-08-21T10:06:33;7.38;;;1.20;;
20478;SDS011;10398;52.490;13.434;2022-08-21T10:09:03;7.22;;;1.27;;
20478;SDS011;10398;52.490;13.434;2022-08-21T10:11:31;6.20;;;1.10;;
20478;SDS011;10398;52.490;13.434;2022-08-21T10:19:02;3.33;;;1.10;;
20478;SDS011;10398;52.490;13.434;2022-08-21T10:21:36;4.25;;;1.20;;
20478;SDS011;10398;52.490;13.434;2022-08-21T10:26:48;5.57;;;1.67;;
20478;SDS011;10398;52.490;13.434;2022-08-21T10:29:32;4.18;;;1.38;;
20478;SDS011;10398;52.490;13.434;2022-08-21T10:32:19;2.60;;;1.20;;
20478;SDS011;10398;52.490;13.434;2022-08-21T10:35:07;5.03;;;1.20;;
20478;SDS011;10398;52.490;13.434;2022-08-21T10:37:46;4.70;;;1.17;;
20478;SDS011;10398;52.490;13.434;2022-08-21T10:40:27;2.55;;;1.10;;
20478;SDS011;10398;52.490;13.434;2022-08-21T10:46:21;2.55;;;1.13;;
20478;SDS011;10398;52.490;13.434;2022-08-21T10:49:22;6.28;;;1.27;;
20478;SDS011;10398;52.490;13.434;2022-08-21T10:57:44;7.88;;;1.08;;
20478;SDS011;10398;52.490;13.434;2022-08-21T11:00:37;5.45;;;1.20;;
20478;SDS011;10398;52.490;13.434;2022-08-21T11:03:17;2.42;;;0.98;;
20478;SDS011;10398;52.490;13.434;2022-08-21T11:06:11;2.85;;;1.13;;
20478;SDS011;10398;52.490;13.434;2022-08-21T11:08:41;5.75;;;1.20;;
20478;SDS011;10398;52.490;13.434;2022-08-21T11:26:57;3.80;;;1.45;;
20478;SDS011;10398;52.490;13.434;2022-08-21T11:29:35;2.97;;;1.00;;
20478;SDS011;10398;52.490;13.434;2022-08-21T11:34:47;4.07;;;1.10;;
20478;SDS011;10398;52.490;13.434;2022-08-21T11:40:52;6.00;;;1.40;;
20478;SDS011;10398;52.490;13.434;2022-08-21T11:43:12;1.25;;;0.50;;
20478;SDS011;10398;52.490;13.434;2022-08-21T11:45:47;3.58;;;1.10;;
20478;SDS011;10398;52.490;13.434;2022-08-21T11:50:57;3.15;;;0.90;;
20478;SDS011;10398;52.490;13.434;2022-08-21T11:53:31;5.18;;;0.80;;
20478;SDS011;10398;52.490;13.434;2022-08-21T11:56:10;4.65;;;1.02;;
20478;SDS011;10398;52.490;13.434;2022-08-21T11:58:56;8.77;;;1.20;;
20478;SDS011;10398;52.490;13.434;2022-08-21T12:01:48;3.90;;;0.93;;
20478;SDS011;10398;52.490;13.434;2022-08-21T12:04:25;4.35;;;1.00;;
20478;SDS011;10398;52.490;13.434;2022-08-21T12:07:13;2.17;;;0.82;;
20478;SDS011;10398;52.490;13.434;2022-08-21T12:09:54;2.03;;;1.00;;
20478;SDS011;10398;52.490;13.434;2022-08-21T12:12:32;6.32;;;0.70;;
20478;SDS011;10398;52.490;13.434;2022-08-21T12:22:52;5.57;;;0.98;;
20478;SDS011;10398;52.490;13.434;2022-08-21T12:25:59;19.63;;;4.18;;
20478;SDS011;10398;52.490;13.434;2022-08-21T12:28:45;33.00;;;7.38;;
20478;SDS011;10398;52.490;13.434;2022-08-21T12:31:18;67.00;;;14.82;;
20478;SDS011;10398;52.490;13.434;2022-08-21T12:33:50;45.20;;;13.82;;
20478;SDS011;10398;52.490;13.434;2022-08-21T12:36:21;78.97;;;20.60;;
20478;SDS011;10398;52.490;13.434;2022-08-21T12:38:55;39.88;;;12.85;;
20478;SDS011;10398;52.490;13.434;2022-08-21T12:41:27;64.13;;;18.02;;
20478;SDS011;10398;52.490;13.434;2022-08-21T12:44:05;71.30;;;17.65;;
20478;SDS011;10398;52.490;13.434;2022-08-21T12:46:46;27.55;;;8.05;;
20478;SDS011;10398;52.490;13.434;2022-08-21T12:49:25;27.30;;;7.80;;
20478;SDS011;10398;52.490;13.434;2022-08-21T12:54:26;28.90;;;7.60;;
20478;SDS011;10398;52.490;13.434;2022-08-21T12:56:59;8.75;;;3.33;;
20478;SDS011;10398;52.490;13.434;2022-08-21T12:59:26;9.98;;;2.67;;
20478;SDS011;10398;52.490;13.434;2022-08-21T13:01:54;8.68;;;2.70;;
20478;SDS011;10398;52.490;13.434;2022-08-21T13:04:42;14.25;;;3.75;;
20478;SDS011;10398;52.490;13.434;2022-08-21T13:07:09;14.25;;;3.30;;
20478;SDS011;10398;52.490;13.434;2022-08-21T13:09:42;4.00;;;1.42;;
20478;SDS011;10398;52.490;13.434;2022-08-21T13:12:19;6.18;;;1.50;;
20478;SDS011;10398;52.490;13.434;2022-08-21T13:14:46;4.20;;;1.33;;
20478;SDS011;10398;52.490;13.434;2022-08-21T13:17:18;5.55;;;1.58;;
20478;SDS011;10398;52.490;13.434;2022-08-21T13:19:59;3.45;;;1.15;;
20478;SDS011;10398;52.490;13.434;2022-08-21T13:22:27;4.20;;;0.82;;
20478;SDS011;10398;52.490;13.434;2022-08-21T13:24:53;3.50;;;1.00;;
20478;SDS011;10398;52.490;13.434;2022-08-21T13:27:29;3.10;;;1.00;;
20478;SDS011;10398;52.490;13.434;2022-08-21T13:30:06;2.90;;;1.02;;
20478;SDS011;10398;52.490;13.434;2022-08-21T13:32:35;3.22;;;1.15;;
20478;SDS011;10398;52.490;13.434;2022-08-21T13:35:09;3.40;;;0.90;;
20478;SDS011;10398;52.490;13.434;2022-08-21T13:37:56;2.92;;;1.17;;
20478;SDS011;10398;52.490;13.434;2022-08-21T13:40:25;3.67;;;1.30;;
20478;SDS011;10398;52.490;13.434;2022-08-21T13:42:53;1.45;;;0.80;;
20478;SDS011;10398;52.490;13.434;2022-08-21T13:45:25;3.92;;;1.10;;
20478;SDS011;10398;52.490;13.434;2022-08-21T13:47:59;8.27;;;1.67;;
20478;SDS011;10398;52.490;13.434;2022-08-21T13:50:26;4.55;;;1.42;;
20478;SDS011;10398;52.490;13.434;2022-08-21T13:55:25;5.07;;;1.40;;
20478;SDS011;10398;52.490;13.434;2022-08-21T13:58:07;6.28;;;1.48;;
20478;SDS011;10398;52.490;13.434;2022-08-21T14:00:42;4.18;;;1.48;;
20478;SDS011;10398;52.490;13.434;2022-08-21T14:03:22;5.32;;;1.23;;
20478;SDS011;10398;52.490;13.434;2022-08-21T14:06:00;5.45;;;1.23;;
20478;SDS011;10398;52.490;13.434;2022-08-21T14:08:30;4.82;;;1.08;;
20478;SDS011;10398;52.490;13.434;2022-08-21T14:11:03;4.25;;;1.20;;
20478;SDS011;10398;52.490;13.434;2022-08-21T14:13:34;3.95;;;1.23;;
20478;SDS011;10398;52.490;13.434;2022-08-21T14:16:02;3.17;;;1.52;;
20478;SDS011;10398;52.490;13.434;2022-08-21T14:18:42;3.67;;;1.35;;
20478;SDS011;10398;52.490;13.434;2022-08-21T14:21:51;6.35;;;1.20;;
20478;SDS011;10398;52.490;13.434;2022-08-21T14:24:14;4.43;;;1.25;;
20478;SDS011;10398;52.490;13.434;2022-08-21T14:27:02;6.57;;;1.25;;
20478;SDS011;10398;52.490;13.434;2022-08-21T14:29:37;4.05;;;1.25;;
20478;SDS011;10398;52.490;13.434;2022-08-21T14:32:08;4.40;;;1.00;;
20478;SDS011;10398;52.490;13.434;2022-08-21T14:34:49;7.30;;;1.20;;
20478;SDS011;10398;52.490;13.434;2022-08-21T14:37:14;4.35;;;1.25;;
20478;SDS011;10398;52.490;13.434;2022-08-21T14:39:40;2.75;;;1.40;;
20478;SDS011;10398;52.490;13.434;2022-08-21T14:42:05;3.88;;;1.30;;
20478;SDS011;10398;52.490;13.434;2022-08-21T14:44:32;6.53;;;2.28;;
20478;SDS011;10398;52.490;13.434;2022-08-21T14:46:58;7.93;;;1.40;;
20478;SDS011;10398;52.490;13.434;2022-08-21T14:49:25;2.83;;;1.25;;
20478;SDS011;10398;52.490;13.434;2022-08-21T14:51:52;2.55;;;1.10;;
20478;SDS011;10398;52.490;13.434;2022-08-21T14:54:22;7.53;;;1.17;;
20478;SDS011;10398;52.490;13.434;2022-08-21T14:56:48;3.83;;;1.42;;
20478;SDS011;10398;52.490;13.434;2022-08-21T14:59:15;6.43;;;1.20;;
20478;SDS011;10398;52.490;13.434;2022-08-21T15:01:41;6.07;;;1.63;;
20478;SDS011;10398;52.490;13.434;2022-08-21T15:04:07;6.30;;;1.65;;
20478;SDS011;10398;52.490;13.434;2022-08-21T15:06:32;4.80;;;1.58;;
20478;SDS011;10398;52.490;13.434;2022-08-21T15:08:58;5.85;;;1.80;;
20478;SDS011;10398;52.490;13.434;2022-08-21T15:11:23;5.63;;;1.52;;
20478;SDS011;10398;52.490;13.434;2022-08-21T15:13:52;5.40;;;1.50;;
20478;SDS011;10398;52.490;13.434;2022-08-21T15:16:21;16.42;;;2.22;;
20478;SDS011;10398;52.490;13.434;2022-08-21T15:18:47;7.75;;;1.80;;
20478;SDS011;10398;52.490;13.434;2022-08-21T15:21:13;8.25;;;1.63;;
20478;SDS011;10398;52.490;13.434;2022-08-21T15:23:38;4.68;;;1.63;;
20478;SDS011;10398;52.490;13.434;2022-08-21T15:26:05;4.03;;;1.80;;
20478;SDS011;10398;52.490;13.434;2022-08-21T15:28:31;7.63;;;1.65;;
20478;SDS011;10398;52.490;13.434;2022-08-21T15:30:59;6.55;;;2.60;;
20478;SDS011;10398;52.490;13.434;2022-08-21T15:33:26;13.45;;;6.57;;
20478;SDS011;10398;52.490;13.434;2022-08-21T15:35:52;9.15;;;3.22;;
20478;SDS011;10398;52.490;13.434;2022-08-21T15:38:17;7.63;;;3.00;;
20478;SDS011;10398;52.490;13.434;2022-08-21T15:40:43;7.28;;;2.00;;
20478;SDS011;10398;52.490;13.434;2022-08-21T15:43:16;4.22;;;1.70;;
20478;SDS011;10398;52.490;13.434;2022-08-21T15:45:51;5.57;;;1.30;;
20478;SDS011;10398;52.490;13.434;2022-08-21T15:48:17;4.18;;;1.40;;
20478;SDS011;10398;52.490;13.434;2022-08-21T15:50:43;5.72;;;1.85;;
20478;SDS011;10398;52.490;13.434;2022-08-21T15:53:09;6.63;;;2.08;;
20478;SDS011;10398;52.490;13.434;2022-08-21T15:55:34;4.90;;;1.58;;
20478;SDS011;10398;52.490;13.434;2022-08-21T15:58:00;4.80;;;1.50;;
20478;SDS011;10398;52.490;13.434;2022-08-21T16:00:26;7.30;;;1.73;;
20478;SDS011;10398;52.490;13.434;2022-08-21T16:02:54;5.15;;;1.75;;
20478;SDS011;10398;52.490;13.434;2022-08-21T16:05:22;5.03;;;1.38;;